Vendinga, Russia
Current Conditions -  °F | °C
As of 1:00 PM on Thursday 29 Jan 2015 (Local Time) from UUYY Reporting Station
Overcast Overcast  
Wind Chill:   Ceiling: 6600
Heat Index: 19°   Visibility: 6mi
Dew Point: 16°   Wind: 13mph
Humidity: 86%   Direction: 200°SSW
Pressure: 29.68"   Gusts: 20mph
Location:  63.45°N, 48°E
Report Text: UUYY 291000Z 20006G09MPS 9999 SCT014CB OVC066 M07/M09 Q1005 TEMPO 1000 SHSN 1945//45 RMK QFE745/0993
Loading
Personal Weather Stations






























Interactive Weather Map New forecast layout! Learn more

10-Day Weather Forecast

Advertisements
Track Severe Weather on mobile